Louviers, Colorado
Current Conditions -  °F | °C
As of 8:53 AM on Friday 28 Nov 2014 (Local Time) from KAPA Reporting Station
Broken Clouds Broken Clouds  
Wind Chill: 51°   Ceiling: 25000
Heat Index: 51°   Visibility: 10mi
Dew Point: 12°   Wind: 12mph
Humidity: 21%   Direction: 140°SE
Pressure: 29.97"   Gusts: NA
Location:  39.48°N, 105.01°W
Report Text: KAPA 281553Z 14010KT 10SM FEW100 BKN250 11/M11 A2997 RMK AO2 SLP126 T01061111
Loading
Personal Weather Stations






























Interactive Weather Map New forecast layout! Learn more

10-Day Weather Forecast

Advertisements
Track Severe Weather on mobile